createdAt,value
2019-04-10T00:01:07.491Z,36.05
2019-04-10T00:02:10.848Z,38.83
2019-04-10T00:03:25.485Z,39.60
2019-04-10T00:04:23.098Z,37.60
2019-04-10T00:05:28.271Z,37.95
2019-04-10T00:06:34.070Z,36.50
2019-04-10T00:07:39.605Z,36.00
2019-04-10T00:08:44.799Z,34.98
2019-04-10T00:09:51.762Z,35.35
2019-04-10T00:10:58.562Z,34.55
2019-04-10T00:12:05.336Z,36.17
2019-04-10T00:13:10.674Z,38.65
2019-04-10T00:14:17.002Z,37.93
2019-04-10T00:15:24.342Z,35.45
2019-04-10T00:16:29.889Z,39.75
2019-04-10T00:17:35.409Z,37.58
2019-04-10T00:18:40.526Z,37.45
2019-04-10T00:19:45.654Z,36.23
2019-04-10T00:20:51.097Z,38.33
2019-04-10T00:21:56.287Z,38.92
2019-04-10T00:23:02.436Z,40.05
2019-04-10T00:24:08.006Z,37.98
2019-04-10T00:25:14.864Z,36.70
2019-04-10T00:26:20.171Z,36.80
2019-04-10T00:27:26.240Z,34.70
2019-04-10T00:28:31.792Z,38.08
2019-04-10T00:29:36.958Z,36.05
2019-04-10T00:30:43.047Z,37.65
2019-04-10T00:31:48.756Z,38.15
2019-04-10T00:32:54.453Z,38.00
2019-04-10T00:34:00.831Z,36.30
2019-04-10T00:35:06.794Z,37.60
2019-04-10T00:36:12.158Z,36.68
2019-04-10T00:37:24.748Z,38.85
2019-04-10T00:38:24.280Z,37.33
2019-04-10T00:39:30.668Z,35.43
2019-04-10T00:40:35.903Z,34.45
2019-04-10T00:41:41.092Z,35.65
2019-04-10T00:42:47.202Z,36.40
2019-04-10T00:43:52.569Z,37.17
2019-04-10T00:44:57.605Z,37.30
2019-04-10T00:46:02.774Z,35.38
2019-04-10T00:47:07.864Z,37.15
2019-04-10T00:48:13.166Z,38.05
2019-04-10T00:49:18.313Z,36.23
2019-04-10T00:50:23.384Z,38.42
2019-04-10T00:51:28.452Z,37.50
2019-04-10T00:52:34.484Z,39.40
2019-04-10T00:53:39.577Z,40.20
2019-04-10T00:54:44.681Z,39.13
2019-04-10T00:55:50.314Z,48.75
2019-04-10T00:56:55.495Z,50.55
2019-04-10T00:58:01.524Z,58.58
2019-04-10T00:59:06.724Z,66.87
2019-04-10T01:00:12.813Z,63.70
2019-04-10T01:01:18.048Z,76.80
2019-04-10T01:02:24.834Z,76.92
2019-04-10T01:03:48.128Z,86.90
2019-04-10T01:04:52.978Z,89.28
2019-04-10T01:05:58.183Z,88.05
2019-04-10T01:07:04.258Z,97.62
2019-04-10T01:08:10.582Z,98.15
2019-04-10T01:09:15.905Z,102.35
2019-04-10T01:10:22.048Z,105.97
2019-04-10T01:11:27.412Z,106.55
2019-04-10T01:12:32.640Z,111.25
2019-04-10T01:13:37.899Z,108.47
2019-04-10T01:14:43.167Z,108.27
2019-04-10T01:15:49.070Z,111.47
2019-04-10T01:16:54.199Z,110.45
2019-04-10T01:17:59.312Z,118.20
2019-04-10T01:19:04.490Z,116.70
2019-04-10T01:20:09.650Z,119.57
2019-04-10T01:21:14.741Z,118.65
2019-04-10T01:22:19.876Z,122.70
2019-04-10T01:23:25.011Z,119.13
2019-04-10T01:24:30.120Z,134.40
2019-04-10T01:25:36.667Z,120.42
2019-04-10T01:26:41.889Z,128.97
2019-04-10T01:27:47.932Z,128.00
2019-04-10T01:28:54.198Z,128.57
2019-04-10T01:30:00.093Z,139.00
2019-04-10T01:31:05.352Z,147.40
2019-04-10T01:32:10.504Z,144.00
2019-04-10T01:33:16.543Z,150.65
2019-04-10T01:34:21.874Z,147.57
2019-04-10T01:35:27.028Z,145.45
2019-04-10T01:36:33.245Z,150.78
2019-04-10T01:37:48.606Z,150.82
2019-04-10T01:38:46.197Z,145.12
2019-04-10T01:39:51.362Z,155.67
2019-04-10T01:40:56.396Z,146.98
2019-04-10T01:42:01.463Z,146.72
2019-04-10T01:43:12.448Z,144.15
2019-04-10T01:44:13.367Z,139.18
2019-04-10T01:45:19.350Z,153.57
2019-04-10T01:46:24.711Z,156.18
2019-04-10T01:47:30.961Z,154.72
2019-04-10T01:48:36.372Z,144.30
2019-04-10T01:49:41.940Z,148.35
2019-04-10T01:50:47.108Z,149.93
2019-04-10T01:51:53.401Z,146.13
2019-04-10T01:53:01.656Z,144.45
2019-04-10T01:54:06.988Z,145.05
2019-04-10T01:55:20.313Z,152.50
2019-04-10T01:56:25.085Z,148.32
2019-04-10T01:57:25.613Z,150.45
2019-04-10T01:58:30.734Z,147.05
2019-04-10T01:59:36.314Z,149.30
2019-04-10T02:00:44.581Z,149.75
2019-04-10T02:01:53.612Z,153.50
2019-04-10T02:02:58.831Z,146.35
2019-04-10T02:04:04.661Z,153.38
2019-04-10T02:05:10.995Z,145.65
2019-04-10T02:06:16.840Z,155.97
2019-04-10T02:07:23.039Z,160.78
2019-04-10T02:08:28.346Z,151.87
2019-04-10T02:09:33.526Z,153.30
2019-04-10T02:10:38.640Z,153.97
2019-04-10T02:11:43.757Z,146.50
2019-04-10T02:12:48.922Z,151.95
2019-04-10T02:13:56.700Z,146.65
2019-04-10T02:15:03.035Z,136.15
2019-04-10T02:16:08.290Z,135.72
2019-04-10T02:17:13.377Z,128.30
2019-04-10T02:18:19.363Z,127.00
2019-04-10T02:19:26.100Z,131.37
2019-04-10T02:20:31.373Z,128.02
2019-04-10T02:21:36.444Z,136.05
2019-04-10T02:22:41.633Z,130.63
2019-04-10T02:23:46.949Z,141.70
2019-04-10T02:24:52.188Z,142.65
2019-04-10T02:25:57.332Z,144.00
2019-04-10T02:27:02.481Z,139.00
2019-04-10T02:28:07.620Z,141.65
2019-04-10T02:29:12.711Z,135.20
2019-04-10T02:30:19.591Z,145.38
2019-04-10T02:31:26.357Z,138.80
2019-04-10T02:32:32.344Z,145.02
2019-04-10T02:33:38.762Z,139.65
2019-04-10T02:34:46.027Z,134.60
2019-04-10T02:35:50.808Z,131.93
2019-04-10T02:36:56.073Z,134.97
2019-04-10T02:38:22.896Z,137.50
2019-04-10T02:39:21.815Z,135.50
2019-04-10T02:40:16.956Z,134.95
2019-04-10T02:41:22.279Z,130.85
2019-04-10T02:42:30.086Z,131.55
2019-04-10T02:43:35.957Z,131.72
2019-04-10T02:44:41.716Z,130.43
2019-04-10T02:45:47.071Z,127.27
2019-04-10T02:46:54.848Z,126.35
2019-04-10T02:48:01.691Z,128.82
2019-04-10T02:49:08.222Z,117.25
2019-04-10T02:50:14.404Z,117.90
2019-04-10T02:51:20.027Z,113.12
2019-04-10T02:52:26.410Z,115.20
2019-04-10T02:53:31.703Z,112.00
2019-04-10T02:54:37.556Z,111.08
2019-04-10T02:55:43.236Z,112.10
2019-04-10T02:56:49.591Z,118.20
2019-04-10T02:57:56.289Z,108.27
2019-04-10T02:59:02.791Z,107.95
2019-04-10T03:00:08.595Z,108.22
2019-04-10T03:01:15.685Z,106.12
2019-04-10T03:02:22.055Z,101.67
2019-04-10T03:03:27.646Z,102.58
2019-04-10T03:04:33.085Z,105.15
2019-04-10T03:05:38.490Z,103.75
2019-04-10T03:06:45.077Z,102.82
2019-04-10T03:07:50.425Z,110.68
2019-04-10T03:09:12.018Z,104.70
2019-04-10T03:10:15.332Z,104.47
2019-04-10T03:11:12.223Z,102.72
2019-04-10T03:12:16.622Z,105.05
2019-04-10T03:13:21.986Z,102.15
2019-04-10T03:14:28.430Z,106.47
2019-04-10T03:15:33.963Z,97.02
2019-04-10T03:16:39.607Z,105.27
2019-04-10T03:17:44.693Z,103.27
2019-04-10T03:18:50.780Z,105.27
2019-04-10T03:19:56.067Z,101.30
2019-04-10T03:21:01.273Z,104.05
2019-04-10T03:22:07.914Z,101.78
2019-04-10T03:23:13.537Z,100.75
2019-04-10T03:24:19.141Z,103.47
2019-04-10T03:25:24.644Z,94.87
2019-04-10T03:26:31.956Z,94.30
2019-04-10T03:27:37.221Z,102.40
2019-04-10T03:28:43.054Z,95.00
2019-04-10T03:29:49.424Z,107.45
2019-04-10T03:30:56.468Z,99.70
2019-04-10T03:32:21.094Z,97.97
2019-04-10T03:33:54.543Z,95.15
2019-04-10T03:35:06.090Z,92.17
2019-04-10T03:36:15.583Z,96.45
2019-04-10T03:37:20.767Z,93.07
2019-04-10T03:38:25.879Z,93.00
2019-04-10T03:39:33.514Z,93.85
2019-04-10T03:40:37.701Z,92.90
2019-04-10T03:41:44.416Z,90.75
2019-04-10T03:42:49.637Z,96.25
2019-04-10T03:43:54.849Z,91.70
2019-04-10T03:45:00.075Z,95.55
2019-04-10T03:46:06.989Z,93.33
2019-04-10T03:47:13.249Z,91.08
2019-04-10T03:48:18.581Z,92.57
2019-04-10T03:49:23.661Z,97.78
2019-04-10T03:50:29.904Z,91.95
2019-04-10T03:51:35.040Z,93.92
2019-04-10T03:52:41.164Z,98.17
2019-04-10T03:53:46.628Z,95.67
2019-04-10T03:54:52.358Z,102.87
2019-04-10T03:55:57.569Z,93.03
2019-04-10T03:57:02.598Z,99.28
2019-04-10T03:58:07.714Z,93.67
2019-04-10T03:59:13.873Z,89.60
2019-04-10T04:00:19.726Z,94.10
2019-04-10T04:01:26.931Z,87.55
2019-04-10T04:02:32.181Z,92.45
2019-04-10T04:03:37.280Z,91.32
2019-04-10T04:04:42.365Z,93.10
2019-04-10T04:05:47.373Z,90.28
2019-04-10T04:06:52.421Z,89.58
2019-04-10T04:07:57.534Z,90.60
2019-04-10T04:09:08.974Z,91.70
2019-04-10T04:10:10.765Z,90.67
2019-04-10T04:11:16.030Z,90.12
2019-04-10T04:12:21.108Z,89.72
2019-04-10T04:13:26.125Z,92.65
2019-04-10T04:14:31.301Z,93.37
2019-04-10T04:15:36.489Z,93.95
2019-04-10T04:16:41.622Z,89.55
2019-04-10T04:17:46.728Z,90.55
2019-04-10T04:18:51.848Z,91.80
2019-04-10T04:19:56.887Z,88.97
2019-04-10T04:21:01.991Z,93.67
2019-04-10T04:22:08.101Z,93.87
2019-04-10T04:23:13.809Z,87.02
2019-04-10T04:24:21.229Z,87.70
2019-04-10T04:25:26.154Z,89.42
2019-04-10T04:26:31.722Z,92.20
2019-04-10T04:27:37.752Z,88.30
2019-04-10T04:28:43.989Z,92.30
2019-04-10T04:29:49.850Z,90.07
2019-04-10T04:30:55.036Z,91.47
2019-04-10T04:32:01.137Z,85.05
2019-04-10T04:33:06.672Z,87.47
2019-04-10T04:34:12.263Z,85.12
2019-04-10T04:35:17.599Z,90.15
2019-04-10T04:36:22.813Z,92.45
2019-04-10T04:37:28.086Z,88.95
2019-04-10T04:38:33.189Z,88.30
2019-04-10T04:39:39.656Z,89.65
2019-04-10T04:40:44.763Z,89.47
2019-04-10T04:41:50.067Z,88.97
2019-04-10T04:42:55.674Z,88.42
2019-04-10T04:44:01.736Z,84.47
2019-04-10T04:45:08.596Z,87.67
2019-04-10T04:46:14.978Z,90.05
2019-04-10T04:47:20.268Z,91.12
2019-04-10T04:48:26.312Z,87.67
2019-04-10T04:49:31.451Z,88.47
2019-04-10T04:50:36.512Z,84.90
2019-04-10T04:51:41.727Z,91.05
2019-04-10T04:52:46.753Z,85.25
2019-04-10T04:53:52.394Z,86.82
2019-04-10T04:54:57.591Z,87.75
2019-04-10T04:56:03.799Z,86.55
2019-04-10T04:57:09.020Z,87.37
2019-04-10T04:58:14.355Z,86.60
2019-04-10T04:59:20.498Z,83.67
2019-04-10T05:00:25.869Z,85.90
2019-04-10T05:01:31.812Z,85.00
2019-04-10T05:02:37.281Z,89.10
2019-04-10T05:03:42.358Z,83.70
2019-04-10T05:04:47.505Z,82.50
2019-04-10T05:05:52.692Z,83.80
2019-04-10T05:06:58.128Z,85.05
2019-04-10T05:08:05.351Z,83.33
2019-04-10T05:09:11.053Z,87.50
2019-04-10T05:10:17.351Z,86.28
2019-04-10T05:11:22.824Z,88.20
2019-04-10T05:12:27.950Z,82.62
2019-04-10T05:13:34.856Z,82.05
2019-04-10T05:14:40.094Z,86.08
2019-04-10T05:15:45.208Z,81.17
2019-04-10T05:16:50.338Z,78.57
2019-04-10T05:17:55.620Z,78.45
2019-04-10T05:19:01.731Z,75.65
2019-04-10T05:20:09.137Z,79.90
2019-04-10T05:21:14.450Z,80.57
2019-04-10T05:22:19.522Z,82.47
2019-04-10T05:23:24.653Z,81.08
2019-04-10T05:24:30.070Z,77.82
2019-04-10T05:25:35.973Z,80.57
2019-04-10T05:26:42.796Z,79.12
2019-04-10T05:27:49.020Z,81.25
2019-04-10T05:28:54.951Z,72.75
2019-04-10T05:30:00.176Z,76.45
2019-04-10T05:31:06.624Z,74.90
2019-04-10T05:32:11.836Z,76.33
2019-04-10T05:33:16.972Z,77.27
2019-04-10T05:34:22.124Z,79.05
2019-04-10T05:35:27.801Z,77.53
2019-04-10T05:36:33.546Z,76.00
2019-04-10T05:37:40.127Z,74.50
2019-04-10T05:38:45.995Z,77.42
2019-04-10T05:39:52.583Z,77.30
2019-04-10T05:40:59.499Z,73.45
2019-04-10T05:42:04.666Z,70.47
2019-04-10T05:43:10.128Z,71.33
2019-04-10T05:44:16.522Z,72.82
2019-04-10T05:45:21.809Z,72.27
2019-04-10T05:46:26.942Z,69.80
2019-04-10T05:47:32.410Z,71.77
2019-04-10T05:48:37.782Z,71.17
2019-04-10T05:49:43.065Z,73.02
2019-04-10T05:50:56.461Z,68.78
2019-04-10T05:51:55.585Z,69.25
2019-04-10T05:53:00.921Z,67.12
2019-04-10T05:54:06.488Z,68.17
2019-04-10T05:55:11.853Z,66.00
2019-04-10T05:56:16.999Z,66.33
2019-04-10T05:57:22.367Z,67.20
2019-04-10T05:58:27.852Z,63.68
2019-04-10T05:59:34.181Z,66.60
2019-04-10T06:00:39.450Z,64.97
2019-04-10T06:01:45.601Z,66.17
2019-04-10T06:02:50.886Z,66.17
2019-04-10T06:03:56.782Z,62.35
2019-04-10T06:05:02.328Z,63.70
2019-04-10T06:06:08.388Z,61.58
2019-04-10T06:07:13.782Z,62.30
2019-04-10T06:08:18.992Z,59.83
2019-04-10T06:09:24.696Z,60.00
2019-04-10T06:10:30.153Z,60.75
2019-04-10T06:11:35.308Z,60.70
2019-04-10T06:12:40.427Z,58.17
2019-04-10T06:13:47.106Z,60.35
2019-04-10T06:14:52.804Z,60.95
2019-04-10T06:15:57.977Z,62.15
2019-04-10T06:17:04.320Z,60.85
2019-04-10T06:18:09.602Z,60.70
2019-04-10T06:19:15.813Z,59.38
2019-04-10T06:20:21.065Z,60.73
2019-04-10T06:21:27.089Z,60.08
2019-04-10T06:22:33.084Z,60.83
2019-04-10T06:23:39.221Z,61.73
2019-04-10T06:24:44.617Z,57.60
2019-04-10T06:25:49.987Z,56.90
2019-04-10T06:26:56.150Z,59.33
2019-04-10T06:28:01.344Z,56.70
2019-04-10T06:29:06.582Z,56.33
2019-04-10T06:30:12.081Z,59.25
2019-04-10T06:31:17.332Z,55.48
2019-04-10T06:32:22.365Z,55.95
2019-04-10T06:33:28.507Z,57.60
2019-04-10T06:34:34.920Z,55.83
2019-04-10T06:35:40.165Z,56.80
2019-04-10T06:36:45.926Z,54.03
2019-04-10T06:37:51.103Z,53.80
2019-04-10T06:38:56.205Z,55.83
2019-04-10T06:40:10.642Z,53.25
2019-04-10T06:41:08.393Z,56.42
2019-04-10T06:42:14.248Z,54.85
2019-04-10T06:43:19.561Z,55.10
2019-04-10T06:44:24.593Z,53.98
2019-04-10T06:45:29.612Z,51.75
2019-04-10T06:46:35.518Z,52.80
2019-04-10T06:47:42.386Z,52.67
2019-04-10T06:48:47.953Z,53.25
2019-04-10T06:49:53.119Z,52.73
2019-04-10T06:50:58.234Z,51.28
2019-04-10T06:52:03.329Z,52.95
2019-04-10T06:53:08.531Z,53.80
2019-04-10T06:54:14.412Z,52.43
2019-04-10T06:55:19.639Z,53.92
2019-04-10T06:56:25.037Z,50.75
2019-04-10T06:57:30.582Z,52.17
2019-04-10T06:58:36.035Z,53.28
2019-04-10T06:59:41.986Z,52.35
2019-04-10T07:00:52.935Z,55.90
2019-04-10T07:01:56.673Z,52.15
2019-04-10T07:03:01.409Z,50.20
2019-04-10T07:04:07.918Z,51.90
2019-04-10T07:05:14.865Z,52.20
2019-04-10T07:06:22.299Z,52.80
2019-04-10T07:07:40.729Z,51.50
2019-04-10T07:08:34.116Z,51.75
2019-04-10T07:09:40.051Z,50.50
2019-04-10T07:10:52.054Z,50.73
2019-04-10T07:11:56.757Z,49.10
2019-04-10T07:12:59.657Z,49.20
2019-04-10T07:14:04.962Z,50.60
2019-04-10T07:15:10.647Z,55.17
2019-04-10T07:16:16.029Z,89.52
2019-04-10T07:17:22.363Z,78.52
2019-04-10T07:18:28.416Z,67.95
2019-04-10T07:19:34.438Z,50.35
2019-04-10T07:20:40.106Z,47.73
2019-04-10T07:21:45.263Z,45.40
2019-04-10T07:22:51.289Z,47.00
2019-04-10T07:24:01.157Z,46.15
2019-04-10T07:25:03.321Z,49.05
2019-04-10T07:26:08.504Z,45.23
2019-04-10T07:27:14.035Z,44.75
2019-04-10T07:28:19.492Z,44.42
2019-04-10T07:29:26.741Z,44.67
2019-04-10T07:30:31.943Z,43.78
2019-04-10T07:31:38.233Z,46.15
2019-04-10T07:32:47.485Z,43.58
2019-04-10T07:33:52.248Z,45.58
2019-04-10T07:35:00.021Z,43.63
2019-04-10T07:36:08.795Z,43.35
2019-04-10T07:37:14.731Z,43.38
2019-04-10T07:38:18.407Z,43.70
2019-04-10T07:39:28.096Z,42.40
2019-04-10T07:40:35.716Z,44.08
2019-04-10T07:41:38.369Z,44.08
2019-04-10T07:42:43.482Z,43.85
2019-04-10T07:43:53.709Z,42.20
2019-04-10T07:44:56.498Z,44.67
2019-04-10T07:46:03.198Z,44.03
2019-04-10T07:47:08.287Z,47.00
2019-04-10T07:48:13.407Z,41.18
2019-04-10T07:49:19.435Z,42.95
2019-04-10T07:50:26.136Z,44.18
2019-04-10T07:51:31.915Z,42.88
2019-04-10T07:52:37.402Z,44.38
2019-04-10T07:53:43.573Z,43.20
2019-04-10T07:54:50.363Z,43.85
2019-04-10T07:56:03.065Z,70.22
2019-04-10T07:57:02.537Z,81.47
2019-04-10T07:58:07.963Z,55.88
2019-04-10T07:59:13.364Z,45.20
2019-04-10T08:00:18.733Z,47.10
2019-04-10T08:01:24.292Z,44.03
2019-04-10T08:02:29.672Z,43.80
2019-04-10T08:03:34.860Z,43.90
2019-04-10T08:04:40.022Z,45.05
2019-04-10T08:05:46.027Z,43.70
2019-04-10T08:06:52.254Z,44.65
2019-04-10T08:07:57.624Z,46.58
2019-04-10T08:09:05.767Z,43.75
2019-04-10T08:10:12.107Z,43.00
2019-04-10T08:11:17.577Z,42.95
2019-04-10T08:12:23.289Z,46.05
2019-04-10T08:13:28.882Z,43.45
2019-04-10T08:14:34.085Z,43.00
2019-04-10T08:15:39.332Z,46.77
2019-04-10T08:16:45.560Z,43.75
2019-04-10T08:17:51.398Z,44.88
2019-04-10T08:18:56.921Z,43.15
2019-04-10T08:20:02.037Z,42.38
2019-04-10T08:21:07.554Z,46.10
2019-04-10T08:22:12.594Z,44.08
2019-04-10T08:23:17.668Z,46.42
2019-04-10T08:24:23.755Z,45.25
2019-04-10T08:25:29.194Z,46.60
2019-04-10T08:26:34.558Z,45.78
2019-04-10T08:27:39.713Z,45.90
2019-04-10T08:28:45.401Z,46.18
2019-04-10T08:29:50.746Z,44.48
2019-04-10T08:30:57.428Z,43.78
2019-04-10T08:32:02.771Z,44.60
2019-04-10T08:33:07.881Z,47.15
2019-04-10T08:34:13.266Z,43.87
2019-04-10T08:35:18.433Z,45.38
2019-04-10T08:36:23.725Z,45.80
2019-04-10T08:37:29.128Z,42.73
2019-04-10T08:38:34.587Z,44.53
2019-04-10T08:39:42.928Z,44.23
2019-04-10T08:40:46.484Z,44.27
2019-04-10T08:41:52.203Z,46.15
2019-04-10T08:42:57.787Z,44.13
2019-04-10T08:44:04.400Z,43.92
2019-04-10T08:45:11.227Z,42.85
2019-04-10T08:46:17.667Z,44.23
2019-04-10T08:47:23.044Z,43.58
2019-04-10T08:48:30.119Z,40.12
2019-04-10T08:49:35.096Z,41.85
2019-04-10T08:50:40.213Z,44.27
2019-04-10T08:51:45.772Z,47.38
2019-04-10T08:52:51.528Z,41.98
2019-04-10T08:53:56.921Z,42.75
2019-04-10T08:55:02.281Z,41.02
2019-04-10T08:56:07.637Z,41.02
2019-04-10T08:57:13.721Z,40.70
2019-04-10T08:58:18.900Z,41.80
2019-04-10T08:59:24.020Z,41.58
2019-04-10T09:00:29.139Z,42.20
2019-04-10T09:01:35.459Z,42.03
2019-04-10T09:02:40.948Z,40.08
2019-04-10T09:03:46.804Z,42.33
2019-04-10T09:04:51.881Z,41.80
2019-04-10T09:05:57.009Z,40.88
2019-04-10T09:07:04.270Z,40.52
2019-04-10T09:08:10.806Z,44.03
2019-04-10T09:09:17.241Z,41.85
2019-04-10T09:10:22.855Z,41.63
2019-04-10T09:11:30.097Z,41.77
2019-04-10T09:12:34.833Z,43.58
2019-04-10T09:13:40.902Z,42.60
2019-04-10T09:14:46.150Z,42.55
2019-04-10T09:15:51.198Z,41.68
2019-04-10T09:16:56.410Z,42.00
2019-04-10T09:18:01.963Z,41.70
2019-04-10T09:19:07.666Z,41.13
2019-04-10T09:20:12.905Z,41.77
2019-04-10T09:21:18.020Z,42.58
2019-04-10T09:22:24.561Z,41.85
2019-04-10T09:23:38.756Z,40.00
2019-04-10T09:24:38.329Z,41.15
2019-04-10T09:25:43.965Z,40.65
2019-04-10T09:26:49.121Z,41.73
2019-04-10T09:27:54.247Z,42.10
2019-04-10T09:28:59.422Z,40.40
2019-04-10T09:30:05.139Z,41.63
2019-04-10T09:31:13.747Z,42.65
2019-04-10T09:32:18.850Z,41.02
2019-04-10T09:33:27.552Z,42.55
2019-04-10T09:34:31.750Z,43.13
2019-04-10T09:35:38.365Z,40.67
2019-04-10T09:36:43.770Z,39.58
2019-04-10T09:37:50.429Z,41.83
2019-04-10T09:38:56.952Z,40.48
2019-04-10T09:40:01.997Z,40.43
2019-04-10T09:41:07.770Z,39.83
2019-04-10T09:42:13.032Z,40.63
2019-04-10T09:43:18.452Z,40.63
2019-04-10T09:44:23.572Z,39.63
2019-04-10T09:45:28.703Z,41.08
2019-04-10T09:46:33.756Z,39.98
2019-04-10T09:47:39.592Z,42.45
2019-04-10T09:48:44.769Z,40.50
2019-04-10T09:49:51.390Z,41.70
2019-04-10T09:50:58.118Z,39.63
2019-04-10T09:52:03.324Z,39.33
2019-04-10T09:53:08.535Z,39.53
2019-04-10T09:54:13.661Z,40.38
2019-04-10T09:55:22.210Z,39.05
2019-04-10T09:56:27.691Z,40.30
2019-04-10T09:57:32.906Z,37.95
2019-04-10T09:58:40.523Z,39.90
2019-04-10T09:59:47.156Z,41.80
2019-04-10T10:00:52.436Z,41.10
2019-04-10T10:01:58.385Z,38.92
2019-04-10T10:03:03.561Z,41.05
2019-04-10T10:04:08.966Z,41.37
2019-04-10T10:05:16.230Z,40.03
2019-04-10T10:06:27.337Z,39.55
2019-04-10T10:07:28.778Z,38.60
2019-04-10T10:08:34.182Z,38.67
2019-04-10T10:09:39.391Z,37.25
2019-04-10T10:10:47.660Z,38.90
2019-04-10T10:11:53.463Z,36.75
2019-04-10T10:12:59.114Z,37.78
2019-04-10T10:14:04.544Z,37.30
2019-04-10T10:15:10.052Z,36.53
2019-04-10T10:16:15.137Z,37.38
2019-04-10T10:17:20.423Z,37.73
2019-04-10T10:18:25.700Z,35.90
2019-04-10T10:19:30.816Z,35.88
2019-04-10T10:20:37.711Z,35.23
2019-04-10T10:21:43.079Z,37.85
2019-04-10T10:22:49.546Z,39.95
2019-04-10T10:23:54.805Z,37.45
2019-04-10T10:24:59.920Z,41.00
2019-04-10T10:26:05.823Z,38.95
2019-04-10T10:27:11.160Z,41.50
2019-04-10T10:28:16.168Z,39.15
2019-04-10T10:29:21.784Z,38.78
2019-04-10T10:30:27.270Z,43.38
2019-04-10T10:31:32.564Z,45.12
2019-04-10T10:32:39.312Z,39.25
2019-04-10T10:33:45.912Z,39.70
2019-04-10T10:34:51.110Z,38.38
2019-04-10T10:35:56.280Z,38.67
2019-04-10T10:37:03.534Z,38.30
2019-04-10T10:38:08.519Z,36.65
2019-04-10T10:39:21.469Z,37.67
2019-04-10T10:40:28.116Z,37.93
2019-04-10T10:41:33.965Z,36.98
2019-04-10T10:42:41.627Z,35.45
2019-04-10T10:43:46.876Z,35.48
2019-04-10T10:44:51.911Z,37.03
2019-04-10T10:45:57.125Z,35.38
2019-04-10T10:47:02.344Z,35.90
2019-04-10T10:48:08.604Z,35.00
2019-04-10T10:49:14.269Z,33.65
2019-04-10T10:50:19.352Z,33.95
2019-04-10T10:51:24.654Z,35.52
2019-04-10T10:52:31.277Z,35.30
2019-04-10T10:53:36.512Z,35.90
2019-04-10T10:54:41.664Z,33.13
2019-04-10T10:55:47.580Z,33.50
2019-04-10T10:56:53.002Z,33.92
2019-04-10T10:57:59.676Z,34.20
2019-04-10T10:59:05.079Z,36.08
2019-04-10T11:00:13.103Z,34.80
2019-04-10T11:01:18.042Z,33.65
2019-04-10T11:02:23.410Z,33.38
2019-04-10T11:03:28.496Z,33.55
2019-04-10T11:04:33.687Z,34.85
2019-04-10T11:05:38.926Z,33.15
2019-04-10T11:06:55.246Z,33.55
2019-04-10T11:07:51.494Z,34.38
2019-04-10T11:08:56.927Z,32.45
2019-04-10T11:10:02.213Z,33.78
2019-04-10T11:11:08.698Z,34.85
2019-04-10T11:12:14.133Z,34.40
2019-04-10T11:13:20.863Z,34.78
2019-04-10T11:14:25.886Z,34.20
2019-04-10T11:15:32.208Z,33.83
2019-04-10T11:16:37.391Z,32.20
2019-04-10T11:17:42.689Z,32.25
2019-04-10T11:18:48.442Z,32.50
2019-04-10T11:19:55.889Z,30.85
2019-04-10T11:21:06.191Z,31.57
2019-04-10T11:22:09.359Z,30.68
2019-04-10T11:23:14.600Z,32.15
2019-04-10T11:24:20.678Z,30.65
2019-04-10T11:25:26.121Z,31.57
2019-04-10T11:26:31.376Z,33.83
2019-04-10T11:27:36.512Z,34.55
2019-04-10T11:28:43.225Z,33.35
2019-04-10T11:29:48.679Z,35.78
2019-04-10T11:30:53.928Z,34.55
2019-04-10T11:32:00.021Z,34.43
2019-04-10T11:33:06.217Z,33.35
2019-04-10T11:34:11.548Z,33.02
2019-04-10T11:35:17.509Z,34.23
2019-04-10T11:36:23.606Z,31.80
2019-04-10T11:37:37.561Z,33.33
2019-04-10T11:38:35.806Z,32.60
2019-04-10T11:39:43.892Z,31.75
2019-04-10T11:40:49.559Z,31.70
2019-04-10T11:41:55.305Z,32.28
2019-04-10T11:43:04.712Z,32.17
2019-04-10T11:44:09.448Z,32.55
2019-04-10T11:46:22.791Z,32.17
2019-04-10T11:47:29.192Z,31.12
2019-04-10T11:48:36.512Z,32.42
2019-04-10T11:49:44.395Z,32.35
2019-04-10T11:50:48.595Z,32.58
2019-04-10T11:51:56.670Z,30.25
2019-04-10T11:53:02.175Z,30.97
2019-04-10T11:54:12.074Z,31.12
2019-04-10T11:55:19.391Z,32.20
2019-04-10T11:56:23.226Z,33.33
2019-04-10T11:57:30.811Z,33.80
2019-04-10T11:58:43.871Z,33.00
2019-04-10T11:59:43.953Z,32.23
2019-04-10T12:00:52.548Z,31.40
2019-04-10T12:02:17.110Z,31.57
2019-04-10T12:03:22.628Z,30.35
2019-04-10T12:04:30.828Z,32.55
2019-04-10T12:05:36.613Z,33.50
2019-04-10T12:06:43.148Z,30.75
2019-04-10T12:08:09.093Z,73.28
2019-04-10T12:11:14.546Z,30.65
2019-04-10T12:12:16.138Z,28.83
2019-04-10T12:13:21.976Z,31.02
2019-04-10T12:14:27.890Z,30.25
2019-04-10T12:15:33.119Z,29.75
2019-04-10T12:16:38.999Z,29.52
2019-04-10T12:17:45.142Z,29.52
2019-04-10T12:18:51.296Z,30.97
2019-04-10T12:19:56.482Z,28.55
2019-04-10T12:21:01.934Z,30.70
2019-04-10T12:22:07.550Z,29.57
2019-04-10T12:23:12.782Z,30.20
2019-04-10T12:24:18.302Z,29.50
2019-04-10T12:25:23.607Z,29.72
2019-04-10T12:26:28.698Z,28.98
2019-04-10T12:27:33.751Z,29.60
2019-04-10T12:28:40.190Z,28.38
2019-04-10T12:29:45.409Z,29.63
2019-04-10T12:30:51.734Z,28.25
2019-04-10T12:31:56.860Z,27.85
2019-04-10T12:33:03.197Z,28.60
2019-04-10T12:34:08.838Z,28.90
2019-04-10T12:35:15.041Z,28.70
2019-04-10T12:36:20.558Z,29.45
2019-04-10T12:37:25.862Z,28.65
2019-04-10T12:38:31.890Z,29.90
2019-04-10T12:39:37.146Z,29.77
2019-04-10T12:40:42.626Z,29.70
2019-04-10T12:41:47.885Z,29.40
2019-04-10T12:42:56.821Z,27.45
2019-04-10T12:44:01.904Z,27.48
2019-04-10T12:45:08.307Z,26.85
2019-04-10T12:46:14.856Z,27.87
2019-04-10T12:47:20.149Z,25.75
2019-04-10T12:48:26.387Z,27.62
2019-04-10T12:49:31.683Z,26.42
2019-04-10T12:50:37.023Z,27.15
2019-04-10T12:51:42.121Z,26.68
2019-04-10T12:52:47.935Z,26.87
2019-04-10T12:53:54.050Z,26.52
2019-04-10T12:54:59.600Z,25.52
2019-04-10T12:56:05.970Z,24.90
2019-04-10T12:57:11.199Z,23.45
2019-04-10T12:58:18.020Z,23.42
2019-04-10T12:59:23.597Z,23.57
2019-04-10T13:00:28.768Z,23.50
2019-04-10T13:01:33.893Z,22.73
2019-04-10T13:02:38.904Z,23.05
2019-04-10T13:03:44.145Z,21.80
2019-04-10T13:04:49.318Z,22.77
2019-04-10T13:05:55.569Z,22.10
2019-04-10T13:07:01.985Z,21.02
2019-04-10T13:08:18.782Z,23.12
2019-04-10T13:09:15.993Z,22.25
2019-04-10T13:10:21.417Z,22.22
2019-04-10T13:11:26.860Z,22.40
2019-04-10T13:12:33.286Z,21.75
2019-04-10T13:13:38.561Z,22.98
2019-04-10T13:14:43.689Z,22.10
2019-04-10T13:15:49.764Z,22.48
2019-04-10T13:16:55.027Z,21.02
2019-04-10T13:18:00.300Z,21.73
2019-04-10T13:19:05.410Z,22.27
2019-04-10T13:20:11.566Z,23.15
2019-04-10T13:21:16.729Z,21.80
2019-04-10T13:22:22.246Z,20.35
2019-04-10T13:23:27.365Z,20.55
2019-04-10T13:24:33.387Z,21.70
2019-04-10T13:25:38.665Z,20.95
2019-04-10T13:26:44.035Z,20.85
2019-04-10T13:27:49.316Z,21.55
2019-04-10T13:28:54.431Z,22.55
2019-04-10T13:30:00.611Z,21.95
2019-04-10T13:31:05.858Z,22.25
2019-04-10T13:32:11.750Z,21.80
2019-04-10T13:33:16.937Z,21.50
2019-04-10T13:34:22.069Z,21.10
2019-04-10T13:35:28.358Z,20.92
2019-04-10T13:36:33.705Z,21.40
2019-04-10T13:37:38.869Z,21.07
2019-04-10T13:38:44.355Z,21.35
2019-04-10T13:39:50.998Z,21.68
2019-04-10T13:40:56.426Z,21.77
2019-04-10T13:42:01.601Z,21.68
2019-04-10T13:43:06.834Z,20.20
2019-04-10T13:44:14.146Z,21.70
2019-04-10T13:45:19.449Z,20.20
2019-04-10T13:46:25.041Z,22.40
2019-04-10T13:47:30.483Z,20.43
2019-04-10T13:48:35.767Z,21.85
2019-04-10T13:49:42.000Z,22.13
2019-04-10T13:50:48.605Z,22.80
2019-04-10T13:51:54.000Z,22.10
2019-04-10T13:52:59.627Z,22.62
2019-04-10T13:54:06.244Z,22.37
2019-04-10T13:55:11.728Z,21.20
2019-04-10T13:56:17.042Z,21.55
2019-04-10T13:57:22.294Z,21.93
2019-04-10T13:58:28.931Z,21.85
2019-04-10T13:59:35.308Z,20.92
2019-04-10T14:00:41.633Z,21.20
2019-04-10T14:01:48.001Z,22.13
2019-04-10T14:02:54.103Z,20.35
2019-04-10T14:03:59.328Z,20.57
2019-04-10T14:05:07.405Z,20.68
2019-04-10T14:06:13.726Z,22.22
2019-04-10T14:07:19.876Z,20.68
2019-04-10T14:08:40.274Z,21.70